createdAt,value
2019-02-09T00:01:35.861Z,2.30
2019-02-09T00:05:41.291Z,2.20
2019-02-09T00:09:46.761Z,2.43
2019-02-09T00:13:52.165Z,2.00
2019-02-09T00:17:57.582Z,2.07
2019-02-09T00:22:03.027Z,2.50
2019-02-09T00:26:08.462Z,2.20
2019-02-09T00:30:14.278Z,2.23
2019-02-09T00:34:19.611Z,1.90
2019-02-09T00:38:25.070Z,1.97
2019-02-09T00:42:30.652Z,2.07
2019-02-09T00:46:36.137Z,2.17
2019-02-09T00:50:42.242Z,1.83
2019-02-09T00:54:47.720Z,1.67
2019-02-09T00:58:53.404Z,2.20
2019-02-09T01:02:58.936Z,2.10
2019-02-09T01:07:04.412Z,1.43
2019-02-09T01:11:09.970Z,1.70
2019-02-09T01:15:17.086Z,1.60
2019-02-09T01:19:22.856Z,1.70
2019-02-09T01:23:28.359Z,1.50
2019-02-09T01:27:33.759Z,1.60
2019-02-09T01:31:39.185Z,1.63
2019-02-09T01:35:44.583Z,1.43
2019-02-09T01:39:50.018Z,1.20
2019-02-09T01:43:55.653Z,1.47
2019-02-09T01:48:01.380Z,1.47
2019-02-09T01:52:06.885Z,1.00
2019-02-09T01:56:12.329Z,1.20
2019-02-09T02:00:21.614Z,1.23
2019-02-09T02:04:26.963Z,1.13
2019-02-09T02:08:32.533Z,1.43
2019-02-09T02:12:38.351Z,1.23
2019-02-09T02:16:43.763Z,1.17
2019-02-09T02:20:49.297Z,0.73
2019-02-09T02:24:54.780Z,0.80
2019-02-09T02:29:00.186Z,0.90
2019-02-09T02:33:07.114Z,1.00
2019-02-09T02:37:12.856Z,1.10
2019-02-09T02:41:18.369Z,1.07
2019-02-09T02:45:24.312Z,1.00
2019-02-09T02:49:29.755Z,1.20
2019-02-09T02:53:35.170Z,1.03
2019-02-09T02:57:40.580Z,0.90
2019-02-09T03:01:45.903Z,1.20
2019-02-09T03:05:51.411Z,1.20
2019-02-09T03:09:56.815Z,1.63
2019-02-09T03:14:02.227Z,1.60
2019-02-09T03:18:07.626Z,1.53
2019-02-09T03:22:13.049Z,1.70
2019-02-09T03:26:18.497Z,2.00
2019-02-09T03:30:25.563Z,1.60
2019-02-09T03:34:30.836Z,1.53
2019-02-09T03:38:36.178Z,1.70
2019-02-09T03:42:41.637Z,1.50
2019-02-09T03:46:47.052Z,1.33
2019-02-09T03:50:52.514Z,1.63
2019-02-09T03:54:57.944Z,1.80
2019-02-09T03:59:03.425Z,1.40
2019-02-09T04:03:08.837Z,1.70
2019-02-09T04:07:14.685Z,1.40
2019-02-09T04:11:20.549Z,1.50
2019-02-09T04:15:26.814Z,1.77
2019-02-09T04:19:32.226Z,1.40
2019-02-09T04:23:37.964Z,1.50
2019-02-09T04:27:43.393Z,1.83
2019-02-09T04:31:48.932Z,1.60
2019-02-09T04:35:54.331Z,1.00
2019-02-09T04:39:59.709Z,1.60
2019-02-09T04:44:05.595Z,2.07
2019-02-09T04:48:11.027Z,1.83
2019-02-09T04:52:16.455Z,1.83
2019-02-09T04:56:21.853Z,1.40
2019-02-09T05:00:29.582Z,2.13
2019-02-09T05:04:34.922Z,1.67
2019-02-09T05:08:40.330Z,1.57
2019-02-09T05:12:45.986Z,1.53
2019-02-09T05:16:51.427Z,1.53
2019-02-09T05:20:57.150Z,2.13
2019-02-09T05:25:02.499Z,1.77
2019-02-09T05:29:07.905Z,1.60
2019-02-09T05:33:13.673Z,1.77
2019-02-09T05:37:19.095Z,1.70
2019-02-09T05:41:24.532Z,2.17
2019-02-09T05:45:30.538Z,1.57
2019-02-09T05:49:36.093Z,2.07
2019-02-09T05:53:41.802Z,1.70
2019-02-09T05:57:47.366Z,1.77
2019-02-09T06:01:52.874Z,1.97
2019-02-09T06:05:58.477Z,1.83
2019-02-09T06:10:04.228Z,2.10
2019-02-09T06:14:09.701Z,2.33
2019-02-09T06:18:15.396Z,1.70
2019-02-09T06:22:21.228Z,1.77
2019-02-09T06:26:26.646Z,1.70
2019-02-09T06:30:33.026Z,2.13
2019-02-09T06:34:38.529Z,2.47
2019-02-09T06:38:44.319Z,2.40
2019-02-09T06:42:49.780Z,1.43
2019-02-09T06:46:55.184Z,0.87
2019-02-09T06:51:02.295Z,1.20
2019-02-09T06:55:09.818Z,0.90
2019-02-09T06:59:15.536Z,1.80
2019-02-09T07:03:21.487Z,1.30
2019-02-09T07:07:27.068Z,1.40
2019-02-09T07:11:33.462Z,2.07
2019-02-09T07:15:39.469Z,2.00
2019-02-09T07:19:44.884Z,2.23
2019-02-09T07:23:50.337Z,2.03
2019-02-09T07:27:56.475Z,1.50
2019-02-09T07:32:02.011Z,1.60
2019-02-09T07:36:07.425Z,1.50
2019-02-09T07:40:14.843Z,2.03
2019-02-09T07:44:20.170Z,1.73
2019-02-09T07:48:25.594Z,2.30
2019-02-09T07:52:31.020Z,2.47
2019-02-09T07:56:36.523Z,2.00
2019-02-09T08:00:42.236Z,2.03
2019-02-09T08:04:47.671Z,2.07
2019-02-09T08:08:53.113Z,2.33
2019-02-09T08:12:58.770Z,2.60
2019-02-09T08:17:04.362Z,2.97
2019-02-09T08:21:09.811Z,2.80
2019-02-09T08:25:18.883Z,2.10
2019-02-09T08:29:24.428Z,1.93
2019-02-09T08:33:29.857Z,2.50
2019-02-09T08:37:35.268Z,1.40
2019-02-09T08:41:40.689Z,2.70
2019-02-09T08:45:46.097Z,1.77
2019-02-09T08:49:51.525Z,3.10
2019-02-09T08:53:56.942Z,2.20
2019-02-09T08:58:02.391Z,2.27
2019-02-09T09:02:07.844Z,3.03
2019-02-09T09:06:13.261Z,2.33
2019-02-09T09:10:20.287Z,1.90
2019-02-09T09:14:25.716Z,2.20
2019-02-09T09:18:31.154Z,3.20
2019-02-09T09:22:36.638Z,2.60
2019-02-09T09:26:42.058Z,1.80
2019-02-09T09:30:47.457Z,3.17
2019-02-09T09:34:52.910Z,3.13
2019-02-09T09:38:58.260Z,2.10
2019-02-09T09:43:03.715Z,1.93
2019-02-09T09:47:09.136Z,2.53
2019-02-09T09:51:14.672Z,3.80
2019-02-09T09:55:20.289Z,2.97
2019-02-09T09:59:25.711Z,2.50
2019-02-09T10:03:31.209Z,2.30
2019-02-09T10:07:36.639Z,3.57
2019-02-09T10:11:41.996Z,3.30
2019-02-09T10:15:47.545Z,2.93
2019-02-09T10:19:53.096Z,3.20
2019-02-09T10:23:58.543Z,3.40
2019-02-09T10:28:04.171Z,2.83
2019-02-09T10:32:09.531Z,2.30
2019-02-09T10:36:15.331Z,3.30
2019-02-09T10:40:29.578Z,3.00
2019-02-09T10:44:35.021Z,2.73
2019-02-09T10:48:40.453Z,2.70
2019-02-09T10:52:46.098Z,3.70
2019-02-09T10:56:51.449Z,2.90
2019-02-09T11:01:02.708Z,3.13
2019-02-09T11:05:09.280Z,2.43
2019-02-09T11:09:21.529Z,2.70
2019-02-09T11:13:27.013Z,3.10
2019-02-09T11:17:32.351Z,2.50
2019-02-09T11:21:38.049Z,2.60
2019-02-09T11:25:43.491Z,3.20
2019-02-09T11:29:49.061Z,3.27
2019-02-09T11:33:54.398Z,2.60
2019-02-09T11:38:00.100Z,3.63
2019-02-09T11:42:08.762Z,2.77
2019-02-09T11:46:14.367Z,2.97
2019-02-09T11:50:20.063Z,3.10
2019-02-09T11:54:25.331Z,3.10
2019-02-09T11:58:33.560Z,3.20
2019-02-09T12:02:38.119Z,2.67
2019-02-09T12:06:43.554Z,3.80
2019-02-09T12:10:48.945Z,2.87
2019-02-09T12:14:54.421Z,2.53
2019-02-09T12:19:01.799Z,2.77
2019-02-09T12:23:07.862Z,2.80
2019-02-09T12:27:13.411Z,2.60
2019-02-09T12:31:18.858Z,2.80
2019-02-09T12:35:24.635Z,3.20
2019-02-09T12:39:30.069Z,2.97
2019-02-09T12:43:35.735Z,2.50
2019-02-09T12:47:41.534Z,2.33
2019-02-09T12:51:47.203Z,2.80
2019-02-09T12:55:52.751Z,2.50
2019-02-09T12:59:58.144Z,2.70
2019-02-09T13:04:03.708Z,3.13
2019-02-09T13:08:09.165Z,3.10
2019-02-09T13:12:14.747Z,2.97
2019-02-09T13:16:20.246Z,3.50
2019-02-09T13:20:27.613Z,3.03
2019-02-09T13:24:33.131Z,2.43
2019-02-09T13:28:38.653Z,2.30
2019-02-09T13:32:44.079Z,2.27
2019-02-09T13:36:49.583Z,2.77
2019-02-09T13:40:55.043Z,1.97
2019-02-09T13:45:00.831Z,3.07
2019-02-09T13:49:06.385Z,3.10
2019-02-09T13:53:11.960Z,2.30
2019-02-09T13:57:17.373Z,2.20
2019-02-09T14:01:22.900Z,2.37
2019-02-09T14:05:28.686Z,2.43
2019-02-09T14:09:34.359Z,1.93
2019-02-09T14:13:39.857Z,2.37
2019-02-09T14:17:45.819Z,1.67
2019-02-09T14:21:51.280Z,1.60
2019-02-09T14:25:56.708Z,1.20
2019-02-09T14:30:02.317Z,1.10
2019-02-09T14:34:07.768Z,1.87
2019-02-09T14:38:13.331Z,2.03
2019-02-09T14:42:18.758Z,1.27
2019-02-09T14:46:24.511Z,1.77
2019-02-09T14:50:29.964Z,1.60
2019-02-09T14:54:35.400Z,2.00
2019-02-09T14:58:40.799Z,2.97
2019-02-09T15:02:53.405Z,2.30
2019-02-09T15:06:53.602Z,2.50
2019-02-09T15:10:59.219Z,2.70
2019-02-09T15:15:07.340Z,2.40
2019-02-09T15:19:12.970Z,3.13
2019-02-09T15:23:18.437Z,2.40
2019-02-09T15:27:24.214Z,2.20
2019-02-09T15:31:29.634Z,2.70
2019-02-09T15:35:35.174Z,2.20
2019-02-09T15:39:40.593Z,2.93
2019-02-09T15:43:45.979Z,2.40
2019-02-09T15:47:51.746Z,2.53
2019-02-09T15:51:57.090Z,2.23
2019-02-09T15:56:02.646Z,2.50
2019-02-09T16:00:16.797Z,2.20
2019-02-09T16:04:22.142Z,3.60
2019-02-09T16:08:27.623Z,2.70
2019-02-09T16:12:33.103Z,2.43
2019-02-09T16:16:38.580Z,2.23
2019-02-09T16:20:44.100Z,2.50
2019-02-09T16:24:49.928Z,2.00
2019-02-09T16:29:33.071Z,2.60
2019-02-09T16:33:38.933Z,2.40
2019-02-09T16:37:44.437Z,2.80
2019-02-09T16:41:49.925Z,2.73
2019-02-09T16:45:55.411Z,2.40
2019-02-09T16:50:00.766Z,2.73
2019-02-09T16:54:06.659Z,2.43
2019-02-09T16:58:12.108Z,1.80
2019-02-09T17:02:17.518Z,2.63
2019-02-09T17:06:23.249Z,2.83
2019-02-09T17:10:28.685Z,2.97
2019-02-09T17:14:34.388Z,2.03
2019-02-09T17:18:39.876Z,2.40
2019-02-09T17:22:45.617Z,2.43
2019-02-09T17:26:54.687Z,2.60
2019-02-09T17:31:01.985Z,2.60
2019-02-09T17:35:08.294Z,2.80
2019-02-09T17:39:13.942Z,2.63
2019-02-09T17:43:19.471Z,2.20
2019-02-09T17:47:24.952Z,2.10
2019-02-09T17:51:30.868Z,2.87
2019-02-09T17:55:36.388Z,2.93
2019-02-09T17:59:41.741Z,2.63
2019-02-09T18:03:47.466Z,2.20
2019-02-09T18:07:52.905Z,2.37
2019-02-09T18:11:58.441Z,1.83
2019-02-09T18:16:05.277Z,2.20
2019-02-09T18:20:12.485Z,2.30
2019-02-09T18:24:18.008Z,2.57
2019-02-09T18:28:23.509Z,2.40
2019-02-09T18:32:29.283Z,2.77
2019-02-09T18:36:34.763Z,2.47
2019-02-09T18:40:41.028Z,2.87
2019-02-09T18:44:47.031Z,2.37
2019-02-09T18:48:52.738Z,2.50
2019-02-09T18:52:58.182Z,2.73
2019-02-09T18:57:03.616Z,2.23
2019-02-09T19:01:09.123Z,2.70
2019-02-09T19:05:15.722Z,2.23
2019-02-09T19:09:22.357Z,2.33
2019-02-09T19:13:28.233Z,3.10
2019-02-09T19:17:34.007Z,2.07
2019-02-09T19:21:39.420Z,2.60
2019-02-09T19:25:44.853Z,2.27
2019-02-09T19:29:50.379Z,2.53
2019-02-09T19:33:56.058Z,3.33
2019-02-09T19:38:01.537Z,2.43
2019-02-09T19:42:07.276Z,2.43
2019-02-09T19:46:12.805Z,3.13
2019-02-09T19:50:18.529Z,3.23
2019-02-09T19:54:24.073Z,2.87
2019-02-09T19:58:29.678Z,2.87
2019-02-09T20:02:35.357Z,2.50
2019-02-09T20:06:41.190Z,3.00
2019-02-09T20:10:46.654Z,2.70
2019-02-09T20:14:52.036Z,3.23
2019-02-09T20:18:57.558Z,2.23
2019-02-09T20:23:03.010Z,2.90
2019-02-09T20:27:08.545Z,2.37
2019-02-09T20:31:14.005Z,2.70
2019-02-09T20:35:27.333Z,2.53
2019-02-09T20:39:26.990Z,3.00
2019-02-09T20:43:32.705Z,2.57
2019-02-09T20:47:38.339Z,3.30
2019-02-09T20:51:44.461Z,3.07
2019-02-09T20:55:49.930Z,3.10
2019-02-09T20:59:55.326Z,3.07
2019-02-09T21:04:00.735Z,3.77
2019-02-09T21:08:07.447Z,3.20
2019-02-09T21:12:12.880Z,2.50
2019-02-09T21:16:18.307Z,3.17
2019-02-09T21:20:23.760Z,2.90
2019-02-09T21:24:29.174Z,2.70
2019-02-09T21:28:34.614Z,2.80
2019-02-09T21:32:40.542Z,3.30
2019-02-09T21:36:46.250Z,3.03
2019-02-09T21:40:51.665Z,3.13
2019-02-09T21:44:57.011Z,2.63
2019-02-09T21:49:02.433Z,2.83
2019-02-09T21:53:08.497Z,2.67
2019-02-09T21:57:13.940Z,3.10
2019-02-09T22:01:19.411Z,3.17
2019-02-09T22:05:25.295Z,2.67
2019-02-09T22:09:30.742Z,2.50
2019-02-09T22:13:36.739Z,2.90
2019-02-09T22:17:42.659Z,2.70
2019-02-09T22:21:48.409Z,3.43
2019-02-09T22:25:54.006Z,3.50
2019-02-09T22:29:59.533Z,3.03
2019-02-09T22:34:05.152Z,2.47
2019-02-09T22:38:10.955Z,2.50
2019-02-09T22:42:16.291Z,2.60
2019-02-09T22:46:21.712Z,2.90
2019-02-09T22:50:33.838Z,2.80
2019-02-09T22:54:39.205Z,3.60
2019-02-09T22:58:44.616Z,3.33
2019-02-09T23:02:50.261Z,2.87
2019-02-09T23:07:04.764Z,3.00
2019-02-09T23:11:10.299Z,2.90
2019-02-09T23:15:15.807Z,2.57
2019-02-09T23:19:21.235Z,3.30
2019-02-09T23:23:26.672Z,3.20
2019-02-09T23:27:32.093Z,3.33
2019-02-09T23:31:37.534Z,3.53
2019-02-09T23:35:42.960Z,3.87
2019-02-09T23:39:48.411Z,3.00
2019-02-09T23:43:53.751Z,3.10
2019-02-09T23:47:59.211Z,3.23
2019-02-09T23:52:04.568Z,3.23
2019-02-09T23:56:09.993Z,2.67
